Terminal Aerodrome Forecast
Issued by NWS

Home | Current Version | Previous Version | Text Only | Print | Product List | Glossary Off
Versions: 1 2 3 4 5 6 7 8 9 10 11 12 13 14 15 16 17 18 19 20 21 22 23 24 25 26 27 28 29 30 31 32 33 34 35 36 37

000
FTUS43 KLOT 191900 AAA
TAFORD
TAF AMD
KORD 191949Z 1919/2024 18014G22KT P6SM FEW250
     FM200000 19014G18KT P6SM SCT250
     FM201400 23013G22KT P6SM FEW040 SCT150 BKN200
     FM201900 24013G20KT P6SM SCT040 BKN120 PROB30 2020/2024 5SM
      -TSRA SCT015 BKN040CB=

USA.gov is the U.S. government's official web portal to all federal, state and local government web resources and services.